createdAt,value
2022-12-16T00:01:31.021Z,98113.73
2022-12-16T00:06:34.159Z,98117.60
2022-12-16T00:11:36.157Z,98131.17
2022-12-16T00:16:42.461Z,98114.10
2022-12-16T00:21:44.260Z,98112.74
2022-12-16T00:26:45.994Z,98104.59
2022-12-16T00:31:48.257Z,98097.89
2022-12-16T00:36:50.160Z,98081.14
2022-12-16T00:41:52.427Z,98081.41
2022-12-16T00:46:53.993Z,98091.25
2022-12-16T00:51:56.854Z,98090.83
2022-12-16T00:56:58.427Z,98085.36
2022-12-16T01:02:00.340Z,98083.91
2022-12-16T01:07:03.136Z,98083.80
2022-12-16T01:12:06.055Z,98063.48
2022-12-16T01:17:07.799Z,98055.31
2022-12-16T01:22:09.446Z,98050.38
2022-12-16T01:27:11.640Z,98042.31
2022-12-16T01:32:13.977Z,98038.42
2022-12-16T01:37:15.883Z,98032.88
2022-12-16T01:42:20.655Z,98015.05
2022-12-16T01:47:27.313Z,97992.73
2022-12-16T01:52:37.529Z,97992.77
2022-12-16T01:57:48.162Z,97987.14
2022-12-16T02:02:51.523Z,97995.34
2022-12-16T02:08:04.736Z,97980.91
2022-12-16T02:13:12.353Z,97974.69
2022-12-16T02:18:29.678Z,97973.73
2022-12-16T02:23:56.171Z,97959.89
2022-12-16T02:29:24.655Z,97950.27
2022-12-16T02:34:49.999Z,97943.65
2022-12-16T02:40:00.462Z,97935.63
2022-12-16T02:45:13.284Z,97926.66
2022-12-16T02:50:46.915Z,97921.67
2022-12-16T02:56:13.723Z,97917.36
2022-12-16T03:01:43.755Z,97906.73
2022-12-16T03:06:50.168Z,97898.92
2022-12-16T03:11:54.651Z,97900.94
2022-12-16T03:16:57.371Z,97900.42
2022-12-16T03:22:13.984Z,97889.73
2022-12-16T03:27:25.046Z,97884.27
2022-12-16T03:32:39.093Z,97878.04
2022-12-16T03:37:42.989Z,97871.34
2022-12-16T03:42:45.242Z,97869.14
2022-12-16T03:47:53.706Z,97871.74
2022-12-16T03:52:56.273Z,97869.27
2022-12-16T03:57:58.233Z,97874.69
2022-12-16T04:03:00.321Z,97869.29
2022-12-16T04:08:02.567Z,97868.52
2022-12-16T04:13:23.122Z,97874.60
2022-12-16T04:18:43.632Z,97876.22
2022-12-16T04:24:13.800Z,97869.26
2022-12-16T04:29:15.555Z,97868.36
2022-12-16T04:34:26.085Z,97877.14
2022-12-16T04:39:46.319Z,97877.42
2022-12-16T04:45:06.851Z,97878.51
2022-12-16T04:50:27.856Z,97877.90
2022-12-16T04:55:48.516Z,97873.10
2022-12-16T05:01:09.666Z,97861.02
2022-12-16T05:06:50.477Z,97861.59
2022-12-16T05:12:11.857Z,97866.86
2022-12-16T05:17:31.999Z,97861.50
2022-12-16T05:22:52.546Z,97853.55
2022-12-16T05:28:14.218Z,97836.07
2022-12-16T05:33:35.134Z,97839.55
2022-12-16T05:38:55.622Z,97834.74
2022-12-16T05:44:16.107Z,97825.54
2022-12-16T05:49:36.623Z,97826.06
2022-12-16T05:54:56.863Z,97828.62
2022-12-16T06:00:17.339Z,97828.05
2022-12-16T06:05:38.055Z,97828.75
2022-12-16T06:10:58.514Z,97835.25
2022-12-16T06:16:19.124Z,97834.55
2022-12-16T06:21:39.455Z,97818.17
2022-12-16T06:27:00.033Z,97818.12
2022-12-16T06:32:20.492Z,97813.69
2022-12-16T06:37:40.989Z,97809.56
2022-12-16T06:43:02.025Z,97808.80
2022-12-16T06:48:22.618Z,97813.57
2022-12-16T06:53:43.228Z,97814.05
2022-12-16T06:59:03.870Z,97809.30
2022-12-16T07:04:24.198Z,97810.48
2022-12-16T07:09:44.703Z,97803.99
2022-12-16T07:15:05.157Z,97798.79
2022-12-16T07:20:26.219Z,97797.80
2022-12-16T07:25:46.536Z,97798.38
2022-12-16T07:31:06.976Z,97793.85
2022-12-16T07:36:31.621Z,97783.41
2022-12-16T07:41:56.577Z,97790.29
2022-12-16T07:47:16.999Z,97787.61
2022-12-16T07:52:37.528Z,97789.14
2022-12-16T07:57:58.131Z,97798.14
2022-12-16T08:03:18.685Z,97812.15
2022-12-16T08:08:39.291Z,97823.73
2022-12-16T08:13:59.764Z,97832.34
2022-12-16T08:19:20.395Z,97840.38
2022-12-16T08:24:40.880Z,97840.21
2022-12-16T08:30:01.389Z,97843.89
2022-12-16T08:35:22.667Z,97839.66
2022-12-16T08:40:42.921Z,97841.39
2022-12-16T08:46:03.618Z,97839.47
2022-12-16T08:51:25.640Z,97842.36
2022-12-16T08:56:46.258Z,97857.58
2022-12-16T09:02:06.662Z,97862.23
2022-12-16T09:07:27.042Z,97880.40
2022-12-16T09:12:47.341Z,97898.14
2022-12-16T09:18:25.135Z,97904.95
2022-12-16T09:23:45.606Z,97915.71
2022-12-16T09:29:06.127Z,97919.91
2022-12-16T09:34:26.709Z,97919.19
2022-12-16T09:39:47.232Z,97925.69
2022-12-16T09:45:36.774Z,97925.03
2022-12-16T09:51:00.359Z,97928.46
2022-12-16T09:56:42.372Z,97931.39
2022-12-16T10:02:03.336Z,97938.83
2022-12-16T10:07:32.251Z,97945.39
2022-12-16T10:13:15.444Z,97945.09
2022-12-16T10:19:10.047Z,97948.01
2022-12-16T10:24:58.858Z,97933.36
2022-12-16T10:30:21.894Z,97926.34
2022-12-16T10:35:47.972Z,97938.92
2022-12-16T10:41:09.186Z,97934.38
2022-12-16T10:46:37.660Z,97930.77
2022-12-16T10:51:58.240Z,97927.02
2022-12-16T10:58:13.401Z,97921.43
2022-12-16T11:03:39.000Z,97912.98
2022-12-16T11:08:59.883Z,97917.80
2022-12-16T11:14:32.764Z,97909.13
2022-12-16T11:19:53.253Z,97905.78
2022-12-16T11:25:43.349Z,97911.16
2022-12-16T11:31:12.548Z,97903.56
2022-12-16T11:36:39.079Z,97926.80
2022-12-16T11:42:12.101Z,97944.52
2022-12-16T11:47:53.556Z,97947.88
2022-12-16T11:53:16.080Z,97942.84
2022-12-16T11:58:50.088Z,97953.31
2022-12-16T12:04:11.496Z,97958.98
2022-12-16T12:09:33.856Z,97957.98
2022-12-16T12:15:01.928Z,97957.98
2022-12-16T12:20:47.717Z,97976.40
2022-12-16T12:26:42.826Z,97982.11
2022-12-16T12:32:06.283Z,97982.33
2022-12-16T12:37:47.051Z,97984.19
2022-12-16T12:43:14.457Z,97987.46
2022-12-16T12:48:43.291Z,97985.80
2022-12-16T12:54:19.157Z,97987.25
2022-12-16T13:00:01.738Z,97996.39
2022-12-16T13:05:24.758Z,98007.63
2022-12-16T13:10:53.363Z,98016.87
2022-12-16T13:16:13.861Z,98025.22
2022-12-16T13:21:57.030Z,98024.92
2022-12-16T13:27:21.727Z,98025.92
2022-12-16T13:32:46.466Z,98038.58
2022-12-16T13:38:37.193Z,98053.94
2022-12-16T13:44:11.503Z,98060.29
2022-12-16T13:50:12.012Z,98080.88
2022-12-16T13:55:37.431Z,98095.73
2022-12-16T14:01:00.625Z,98116.42
2022-12-16T14:06:25.047Z,98114.77
2022-12-16T14:12:07.793Z,98105.59
2022-12-16T14:17:40.009Z,98109.84
2022-12-16T14:23:55.747Z,98103.59
2022-12-16T14:29:16.275Z,98110.38
2022-12-16T14:34:40.244Z,98113.45
2022-12-16T14:40:00.762Z,98123.01
2022-12-16T14:45:21.258Z,98140.06
2022-12-16T14:50:48.115Z,98169.47
2022-12-16T14:56:08.851Z,98176.20
2022-12-16T15:01:43.390Z,98191.70
2022-12-16T15:07:08.791Z,98199.20
2022-12-16T15:12:34.099Z,98204.26
2022-12-16T15:18:04.195Z,98214.45
2022-12-16T15:23:35.227Z,98220.84
2022-12-16T15:29:03.660Z,98221.77
2022-12-16T15:35:07.110Z,98224.25
2022-12-16T15:40:55.517Z,98234.47
2022-12-16T15:46:16.378Z,98246.79
2022-12-16T15:51:49.444Z,98261.82
2022-12-16T15:57:09.823Z,98270.57
2022-12-16T16:02:45.638Z,98283.81
2022-12-16T16:08:06.361Z,98276.26
2022-12-16T16:13:28.451Z,98274.45
2022-12-16T16:18:48.555Z,98278.80
2022-12-16T16:24:08.926Z,98284.20
2022-12-16T16:29:31.786Z,98301.55
2022-12-16T16:34:52.278Z,98305.13
2022-12-16T16:40:12.702Z,98302.14
2022-12-16T16:45:33.299Z,98306.48
2022-12-16T16:50:53.741Z,98316.77
2022-12-16T16:56:19.834Z,98328.90
2022-12-16T17:01:40.654Z,98346.20
2022-12-16T17:07:00.840Z,98362.33
2022-12-16T17:12:33.293Z,98368.27
2022-12-16T17:17:53.771Z,98376.17
2022-12-16T17:23:15.215Z,98390.64
2022-12-16T17:28:35.551Z,98395.46
2022-12-16T17:33:56.182Z,98401.35
2022-12-16T17:39:16.695Z,98402.80
2022-12-16T17:44:37.756Z,98402.43
2022-12-16T17:49:58.203Z,98401.90
2022-12-16T17:55:19.094Z,98408.24
2022-12-16T18:00:39.264Z,98421.35
2022-12-16T18:05:59.722Z,98422.72
2022-12-16T18:11:20.150Z,98421.23
2022-12-16T18:16:40.783Z,98416.21
2022-12-16T18:22:02.568Z,98418.62
2022-12-16T18:27:23.308Z,98421.36
2022-12-16T18:32:43.675Z,98432.88
2022-12-16T18:38:04.037Z,98437.96
2022-12-16T18:43:24.534Z,98450.05
2022-12-16T18:48:45.433Z,98452.50
2022-12-16T18:54:08.376Z,98460.33
2022-12-16T18:59:28.672Z,98466.58
2022-12-16T19:04:49.187Z,98477.22
2022-12-16T19:10:09.297Z,98488.25
2022-12-16T19:15:29.874Z,98492.34
2022-12-16T19:20:50.563Z,98494.23
2022-12-16T19:26:15.800Z,98510.25
2022-12-16T19:31:36.313Z,98502.51
2022-12-16T19:36:56.738Z,98506.80
2022-12-16T19:42:18.305Z,98527.95
2022-12-16T19:47:38.707Z,98531.67
2022-12-16T19:52:59.292Z,98533.88
2022-12-16T19:58:19.784Z,98537.33
2022-12-16T20:03:40.369Z,98539.93
2022-12-16T20:09:05.220Z,98558.38
2022-12-16T20:14:26.774Z,98563.34
2022-12-16T20:19:47.313Z,98567.61
2022-12-16T20:25:07.971Z,98567.75
2022-12-16T20:30:29.628Z,98570.35
2022-12-16T20:35:49.781Z,98574.02
2022-12-16T20:41:17.948Z,98578.10
2022-12-16T20:46:38.548Z,98598.29
2022-12-16T20:51:59.045Z,98613.53
2022-12-16T20:57:19.659Z,98628.77
2022-12-16T21:02:40.338Z,98631.89
2022-12-16T21:08:01.517Z,98626.46
2022-12-16T21:13:33.718Z,98625.03
2022-12-16T21:18:54.556Z,98633.33
2022-12-16T21:24:17.018Z,98645.84
2022-12-16T21:29:37.772Z,98648.34
2022-12-16T21:34:58.158Z,98653.69
2022-12-16T21:40:18.848Z,98659.59
2022-12-16T21:45:39.160Z,98661.20
2022-12-16T21:50:59.650Z,98658.94
2022-12-16T21:56:20.035Z,98657.14
2022-12-16T22:01:40.675Z,98661.92
2022-12-16T22:07:01.317Z,98666.94
2022-12-16T22:12:28.332Z,98673.16
2022-12-16T22:23:30.347Z,98674.91
2022-12-16T22:28:50.921Z,98686.14
2022-12-16T22:34:12.627Z,98688.13
2022-12-16T22:39:33.197Z,98691.52
2022-12-16T22:44:53.885Z,98688.58
2022-12-16T22:50:16.960Z,98692.92
2022-12-16T22:55:37.569Z,98688.94
2022-12-16T23:00:58.131Z,98696.91
2022-12-16T23:06:18.728Z,98689.18
2022-12-16T23:11:50.799Z,98687.02
2022-12-16T23:17:12.736Z,98685.33
2022-12-16T23:22:33.575Z,98686.08
2022-12-16T23:27:54.081Z,98689.13
2022-12-16T23:36:44.684Z,98708.61
2022-12-16T23:42:05.201Z,98706.81
2022-12-16T23:47:25.410Z,98714.90
2022-12-16T23:52:45.904Z,98731.46
2022-12-16T23:58:06.228Z,98743.42
